KLCK/LCK METAR and TAF weather

Enter ICAO airport designator
Station Type Date Time Source
KLCK METAR 2021/04/13 07:55 UTC NOAA

KLCK 130755Z AUTO 00000KT 10SM CLR 07/06 A3002 RMK AO2 T00700056


Station Type Date Time Source
KLCK Decoded METAR 2021/04/13 07:55 UTC NOAA

Rickenbacker Air National Guard Base, OH, United States (KLCK) 39-49N 082-56W
Apr 13, 2021 - 03:55 AM EDT / 2021.04.13 0755 UTC
Wind: Calm:0
Visibility: 10 mile(s):0
Sky conditions: clear
Temperature: 44.6 F (7.0 C)
Dew Point: 42.1 F (5.6 C)
Relative Humidity: 90%
Pressure (altimeter): 30.02 in. Hg (1016 hPa)
ob: KLCK 130755Z AUTO 00000KT 10SM CLR 07/06 A3002 RMK AO2 T00700056
cycle: 8

Station Type Date Time Source
KLCK TAF 2021/04/13 06:39 UTC NOAA

TAF KLCK 130531Z 1306/1406 23004KT P6SM SCT060 BKN250
FM130900 32003KT 4SM BR BKN250
FM131300 29006KT P6SM BKN250
FM131800 27008KT P6SM BKN250
FM140200 28003KT P6SM SCT250

Example: see airport list